Time;durP1;ratioP1;P1;durP2;ratioP2;P2;SDS_P1;SDS_P2;PMS_P1;PMS_P2;Temp;Humidity;BMP_temperature;BMP_pressure;BME280_temperature;BME280_humidity;BME280_pressure;Samples;Min_cycle;Max_cycle;Signal;HPM_P1;HPM_P2
2022/09/04 00:02:41;;;;;;;5.30;4.90;;;20.50;11.10;;;;;;4932259;29;20217;-71
2022/09/04 00:05:44;;;;;;;5.35;4.50;;;20.40;9.40;;;;;;4894290;29;20229;-71
2022/09/04 00:08:36;;;;;;;5.88;5.35;;;20.40;13.40;;;;;;4894261;29;20183;-70
2022/09/04 00:11:25;;;;;;;5.10;4.70;;;20.40;14.00;;;;;;4894039;29;20658;-71
2022/09/04 00:13:57;;;;;;;4.82;4.45;;;20.40;13.70;;;;;;4893832;29;20234;-72
2022/09/04 00:16:49;;;;;;;5.85;4.82;;;20.30;17.20;;;;;;4894265;29;20229;-71
2022/09/04 00:19:22;;;;;;;4.43;4.10;;;20.30;17.10;;;;;;4868611;29;20222;-72
2022/09/04 00:21:51;;;;;;;4.50;4.20;;;20.30;17.30;;;;;;4893996;29;20260;-72
2022/09/04 00:24:21;;;;;;;4.53;4.22;;;20.30;16.70;;;;;;4906970;29;20261;-72
2022/09/04 00:27:19;;;;;;;5.35;4.65;;;20.30;16.10;;;;;;4912705;29;20186;-71
2022/09/04 00:30:02;;;;;;;4.97;4.22;;;20.30;19.80;;;;;;4900414;29;20178;-71
2022/09/04 00:32:40;;;;;;;5.03;4.60;;;20.30;13.70;;;;;;4912832;29;20209;-70
2022/09/04 00:35:34;;;;;;;5.22;4.75;;;20.30;16.00;;;;;;4912794;29;20188;-71
2022/09/04 00:38:14;;;;;;;5.20;4.72;;;20.40;11.70;;;;;;4912672;29;20209;-71
2022/09/04 00:40:51;;;;;;;7.70;4.88;;;20.40;11.00;;;;;;4927452;28;20188;-71
2022/09/04 00:43:58;;;;;;;5.03;4.53;;;20.30;14.30;;;;;;4972034;28;20209;-70
2022/09/04 00:46:46;;;;;;;6.53;4.30;;;20.30;12.30;;;;;;4958049;28;20195;-70
2022/09/04 00:49:35;;;;;;;5.07;4.30;;;20.30;14.80;;;;;;4972019;28;20192;-71
2022/09/04 00:52:09;;;;;;;4.35;4.05;;;20.20;15.00;;;;;;4971946;28;20524;-70
2022/09/04 00:54:59;;;;;;;4.47;4.13;;;20.20;16.70;;;;;;4971552;28;20210;-70
2022/09/04 00:58:02;;;;;;;5.03;4.63;;;20.20;16.80;;;;;;4971866;28;20254;-71
2022/09/04 01:00:29;;;;;;;4.50;4.10;;;20.20;17.60;;;;;;4971747;28;20190;-70
2022/09/04 01:03:20;;;;;;;4.78;4.40;;;20.20;16.80;;;;;;4971878;28;20170;-70
2022/09/04 01:06:00;;;;;;;7.20;4.13;;;20.10;18.60;;;;;;4970388;28;20681;-70
2022/09/04 01:08:58;;;;;;;3.75;3.40;;;20.10;19.20;;;;;;4970085;28;20182;-70
2022/09/04 01:11:44;;;;;;;4.38;3.97;;;20.10;20.90;;;;;;4971711;28;20172;-71
2022/09/04 01:14:40;;;;;;;4.63;3.60;;;20.10;23.30;;;;;;4971374;28;20924;-71
2022/09/04 01:17:24;;;;;;;4.28;3.97;;;20.00;22.50;;;;;;4971481;28;20172;-71
2022/09/04 01:20:13;;;;;;;4.15;3.85;;;20.00;23.70;;;;;;4971443;28;20207;-71
2022/09/04 01:22:43;;;;;;;4.03;3.75;;;20.00;22.60;;;;;;4971224;28;20176;-71
2022/09/04 01:25:28;;;;;;;4.10;3.80;;;20.10;24.40;;;;;;4971317;28;20257;-70
2022/09/04 01:28:02;;;;;;;4.45;4.05;;;20.10;17.60;;;;;;4971398;28;20182;-71
2022/09/04 01:30:36;;;;;;;4.00;3.70;;;20.10;20.80;;;;;;4971507;28;20229;-70
2022/09/04 01:33:19;;;;;;;3.85;3.60;;;20.00;21.00;;;;;;4971325;28;20698;-70
2022/09/04 01:36:31;;;;;;;4.03;3.72;;;20.00;21.40;;;;;;4971322;28;20176;-71
2022/09/04 01:38:59;;;;;;;4.13;3.83;;;20.00;20.70;;;;;;4960811;28;20220;-70
2022/09/04 01:41:32;;;;;;;4.13;3.72;;;20.00;24.30;;;;;;4971218;28;20168;-70
2022/09/04 01:43:58;;;;;;;5.00;3.67;;;19.90;24.80;;;;;;4971225;28;20172;-71
2022/09/04 01:46:52;;;;;;;4.15;3.70;;;19.90;26.20;;;;;;4971045;28;20176;-70
2022/09/04 01:49:28;;;;;;;7.45;3.90;;;19.90;26.50;;;;;;4971009;28;20547;-70
2022/09/04 01:52:00;;;;;;;5.03;4.00;;;19.90;29.60;;;;;;4970818;28;20712;-70
2022/09/04 01:54:48;;;;;;;4.35;3.75;;;19.90;28.00;;;;;;4971078;28;20180;-71
2022/09/04 01:57:45;;;;;;;4.03;3.83;;;19.90;29.10;;;;;;4971004;28;20667;-69
2022/09/04 02:00:33;;;;;;;4.75;4.20;;;19.90;28.90;;;;;;4970988;28;20208;-71
2022/09/04 02:03:12;;;;;;;5.00;4.00;;;19.90;28.00;;;;;;4970976;28;20623;-70
2022/09/04 02:05:49;;;;;;;4.45;4.05;;;19.80;30.50;;;;;;4971025;28;20728;-71
2022/09/04 02:08:34;;;;;;;6.47;4.20;;;19.80;36.50;;;;;;4970858;28;20180;-71
2022/09/04 02:11:22;;;;;;;5.22;4.55;;;19.80;41.50;;;;;;4969785;28;20179;-70
2022/09/04 02:13:52;;;;;;;5.05;4.65;;;19.70;42.80;;;;;;4970366;28;20633;-71
2022/09/04 02:16:29;;;;;;;5.60;4.80;;;19.70;46.10;;;;;;4971726;28;20164;-70
2022/09/04 02:19:11;;;;;;;5.50;4.50;;;19.70;48.00;;;;;;4973966;28;20245;-70
2022/09/04 02:22:02;;;;;;;5.95;4.68;;;19.60;49.80;;;;;;4973707;28;20164;-71
2022/09/04 02:24:42;;;;;;;6.00;5.40;;;19.60;55.60;;;;;;4953528;28;20188;-70
2022/09/04 02:27:18;;;;;;;5.57;5.15;;;19.60;55.70;;;;;;4974013;28;20662;-70
2022/09/04 02:30:02;;;;;;;5.95;5.45;;;19.60;58.00;;;;;;4973966;28;20184;-70
2022/09/04 02:32:37;;;;;;;6.57;5.70;;;19.60;59.40;;;;;;4972701;28;20198;-70
2022/09/04 02:35:08;;;;;;;5.68;5.22;;;19.50;66.80;;;;;;4973671;28;20244;-70
2022/09/04 02:37:43;;;;;;;6.85;6.15;;;19.50;66.50;;;;;;4973802;28;20176;-70
2022/09/04 02:40:32;;;;;;;6.43;5.93;;;19.50;69.00;;;;;;4973599;28;20709;-70
2022/09/04 02:43:20;;;;;;;7.18;6.43;;;19.50;67.10;;;;;;4972631;28;20176;-71
2022/09/04 02:46:24;;;;;;;7.68;6.10;;;19.60;63.50;;;;;;4973847;28;20168;-70
2022/09/04 02:49:17;;;;;;;7.53;6.85;;;19.50;70.60;;;;;;4917029;28;20181;-70
2022/09/04 02:52:03;;;;;;;7.25;6.05;;;19.40;75.10;;;;;;4933213;29;20177;-70
2022/09/04 02:54:49;;;;;;;7.75;6.63;;;19.40;78.20;;;;;;4965023;28;20188;-70
2022/09/04 02:57:46;;;;;;;6.75;6.10;;;19.40;80.40;;;;;;4973460;28;20175;-70
2022/09/04 03:00:18;;;;;;;6.90;6.30;;;19.30;84.00;;;;;;4973424;28;20243;-71
2022/09/04 03:03:28;;;;;;;7.82;6.22;;;19.30;83.70;;;;;;4973370;28;20174;-71
2022/09/04 03:06:16;;;;;;;6.30;5.82;;;19.20;89.90;;;;;;4932774;28;20276;-71
2022/09/04 03:09:13;;;;;;;7.88;6.97;;;19.20;91.60;;;;;;4933038;28;20192;-71
2022/09/04 03:11:53;;;;;;;7.60;6.85;;;19.10;92.10;;;;;;4932920;29;20174;-70
2022/09/04 03:14:33;;;;;;;6.78;6.10;;;19.10;92.70;;;;;;4932311;29;20229;-71
2022/09/04 03:17:18;;;;;;;7.22;6.63;;;19.10;92.60;;;;;;4932997;29;20208;-71
2022/09/04 03:19:53;;;;;;;7.15;6.57;;;19.10;94.20;;;;;;4932143;28;20320;-71
2022/09/04 03:22:44;;;;;;;8.02;7.13;;;19.00;96.90;;;;;;4932873;29;20239;-71
2022/09/04 03:26:00;;;;;;;8.55;7.70;;;19.00;97.50;;;;;;4932833;28;20173;-71
2022/09/04 03:28:42;;;;;;;8.73;7.55;;;19.00;96.70;;;;;;4893177;29;20295;-71
2022/09/04 03:31:52;;;;;;;10.32;7.53;;;19.00;98.30;;;;;;4894935;29;20199;-71
2022/09/04 03:34:37;;;;;;;8.90;8.10;;;19.00;98.70;;;;;;4877087;29;20278;-71
2022/09/04 03:37:26;;;;;;;8.98;8.13;;;18.90;99.90;;;;;;4894393;29;20193;-70
2022/09/04 03:40:04;;;;;;;12.38;10.05;;;18.90;99.90;;;;;;4887385;29;20342;-70
2022/09/04 03:42:46;;;;;;;12.90;11.50;;;19.00;99.90;;;;;;4894370;29;20249;-71
2022/09/04 03:45:49;;;;;;;11.70;10.48;;;18.90;99.90;;;;;;4894462;29;20186;-71
2022/09/04 03:48:42;;;;;;;17.63;11.73;;;19.00;99.90;;;;;;4924197;29;20214;-70
2022/09/04 03:51:26;;;;;;;11.27;10.10;;;19.00;99.90;;;;;;4894323;29;20268;-70
2022/09/04 03:54:14;;;;;;;12.88;10.43;;;19.10;99.90;;;;;;4894142;29;20224;-70
2022/09/04 03:57:02;;;;;;;12.40;10.60;;;19.10;99.90;;;;;;4894054;29;20174;-70
2022/09/04 03:59:35;;;;;;;13.65;10.63;;;19.00;99.90;;;;;;4894033;29;20272;-71
2022/09/04 04:02:44;;;;;;;14.15;11.73;;;19.00;99.90;;;;;;4894149;29;20175;-70
2022/09/04 04:05:41;;;;;;;10.55;9.57;;;19.00;99.90;;;;;;4932609;29;20186;-71
2022/09/04 04:08:37;;;;;;;10.07;9.07;;;19.00;99.90;;;;;;4933794;28;20216;-70
2022/09/04 04:11:38;;;;;;;10.77;9.70;;;18.90;99.90;;;;;;4932872;29;20184;-71
2022/09/04 04:14:34;;;;;;;10.38;9.18;;;18.90;99.90;;;;;;5017434;28;20253;-71
2022/09/04 04:17:20;;;;;;;9.57;8.57;;;18.80;99.90;;;;;;5031310;28;20723;-71
2022/09/04 04:20:23;;;;;;;10.23;9.13;;;18.80;99.90;;;;;;5031546;28;20236;-70
2022/09/04 04:23:04;;;;;;;10.55;8.82;;;18.80;99.90;;;;;;5014936;28;20239;-70
2022/09/04 04:25:48;;;;;;;9.63;8.73;;;18.80;99.90;;;;;;5031404;28;20272;-71
2022/09/04 04:28:19;;;;;;;9.53;8.60;;;18.80;99.90;;;;;;5031564;28;20170;-71
2022/09/04 04:30:51;;;;;;;11.05;8.77;;;18.80;99.90;;;;;;5030914;28;20189;-71
2022/09/04 04:33:42;;;;;;;12.30;9.23;;;18.80;99.90;;;;;;5031730;28;20170;-71
2022/09/04 04:36:16;;;;;;;9.60;8.73;;;18.80;99.90;;;;;;5031207;28;20174;-70
2022/09/04 04:39:20;;;;;;;9.70;8.70;;;18.70;99.90;;;;;;5030857;28;20405;-71
2022/09/04 04:42:10;;;;;;;9.95;8.65;;;18.70;99.90;;;;;;5030947;28;20209;-71
2022/09/04 04:48:20;;;;;;;10.40;8.82;;;18.80;99.90;;;;;;5031110;28;20228;-71
2022/09/04 04:50:58;;;;;;;10.73;8.52;;;18.70;99.90;;;;;;4976689;28;20274;-71
2022/09/04 04:53:30;;;;;;;9.75;8.40;;;18.70;99.90;;;;;;4952228;28;20169;-71
2022/09/04 04:56:05;;;;;;;10.23;8.03;;;18.70;99.90;;;;;;4951992;28;20168;-70
2022/09/04 04:59:08;;;;;;;8.23;7.45;;;18.70;99.90;;;;;;4952293;28;20249;-71
2022/09/04 05:01:51;;;;;;;8.30;7.50;;;18.60;99.90;;;;;;4952169;28;20173;-71
2022/09/04 05:04:52;;;;;;;8.57;7.78;;;18.60;99.90;;;;;;4951898;28;20165;-71
2022/09/04 05:07:39;;;;;;;7.87;7.13;;;18.60;99.90;;;;;;5034204;28;20189;-71
2022/09/04 05:10:33;;;;;;;7.10;6.50;;;18.60;99.90;;;;;;5050586;28;20273;-70
2022/09/04 05:13:30;;;;;;;6.95;6.35;;;18.50;99.90;;;;;;5050644;28;20250;-70
2022/09/04 05:16:16;;;;;;;6.97;6.27;;;18.50;99.90;;;;;;5030075;28;20198;-70
2022/09/04 05:18:44;;;;;;;6.50;5.90;;;18.50;99.90;;;;;;5030519;28;20271;-70
2022/09/04 05:21:31;;;;;;;6.40;5.80;;;18.50;99.90;;;;;;5030586;28;20629;-70
2022/09/04 05:24:12;;;;;;;6.57;5.97;;;18.50;99.90;;;;;;5030577;28;20358;-70
2022/09/04 05:26:59;;;;;;;9.57;6.33;;;18.60;99.90;;;;;;5030661;28;20256;-71
2022/09/04 05:29:50;;;;;;;9.65;6.85;;;18.60;99.90;;;;;;5030037;28;20170;-71
2022/09/04 05:32:24;;;;;;;6.95;6.35;;;18.90;99.90;;;;;;5030645;28;20272;-72
2022/09/04 05:35:02;;;;;;;8.18;6.57;;;19.30;99.30;;;;;;5030694;28;20169;-71
2022/09/04 05:37:57;;;;;;;6.40;5.80;;;19.60;73.30;;;;;;5030642;28;20192;-71
2022/09/04 05:40:33;;;;;;;7.40;6.35;;;20.00;57.50;;;;;;5030532;28;20186;-71
2022/09/04 05:43:06;;;;;;;7.40;6.70;;;20.60;16.90;;;;;;5014918;28;20196;-72
2022/09/04 05:45:51;;;;;;;6.25;5.75;;;21.00;1.00;;;;;;4951078;28;20644;-72
2022/09/04 05:49:01;;;;;;;8.30;6.22;;;21.20;1.00;;;;;;4951351;28;20169;-72
2022/09/04 05:52:09;;;;;;;7.00;6.30;;;21.30;1.00;;;;;;4989298;28;20196;-73
2022/09/04 05:54:59;;;;;;;7.78;6.72;;;22.20;1.00;;;;;;4955064;28;20168;-73
2022/09/04 05:57:52;;;;;;;7.50;6.72;;;23.40;1.00;;;;;;4954516;28;20196;-72
2022/09/04 06:00:18;;;;;;;7.78;7.07;;;24.60;8.40;;;;;;4953439;28;20217;-72
2022/09/04 06:02:56;;;;;;;8.65;7.60;;;25.60;1.00;;;;;;4954669;28;20180;-73
2022/09/04 06:05:30;;;;;;;7.93;7.28;;;26.30;99.90;;;;;;4955007;28;20176;-73
2022/09/04 06:08:22;;;;;;;9.10;8.30;;;27.00;1.00;;;;;;4955060;28;20199;-74
2022/09/04 06:10:57;;;;;;;9.68;8.55;;;27.40;99.90;;;;;;4954568;28;20185;-74
2022/09/04 06:13:41;;;;;;;10.32;9.30;;;27.60;99.90;;;;;;4954365;28;20219;-74
2022/09/04 06:16:25;;;;;;;10.02;9.20;;;27.70;1.00;;;;;;4973716;28;20653;-74
2022/09/04 06:19:09;;;;;;;12.27;11.07;;;28.60;1.00;;;;;;4973715;28;20212;-74
2022/09/04 06:22:07;;;;;;;11.88;10.55;;;29.40;1.00;;;;;;4974056;28;20194;-75
2022/09/04 06:24:50;;;;;;;9.45;8.65;;;30.30;1.00;;;;;;4974024;28;20203;-74
2022/09/04 06:27:54;;;;;;;9.80;8.80;;;30.50;99.90;;;;;;4973311;28;20168;-74
2022/09/04 06:30:20;;;;;;;9.98;9.18;;;30.50;99.90;;;;;;4973748;28;20179;-74
2022/09/04 06:33:24;;;;;;;11.77;9.48;;;31.00;99.90;;;;;;4973738;28;20179;-74
2022/09/04 06:36:34;;;;;;;10.02;9.23;;;31.50;99.90;;;;;;4933053;28;20698;-74
2022/09/04 06:39:11;;;;;;;9.48;8.63;;;32.50;99.90;;;;;;4986468;28;20418;-73
2022/09/04 06:42:16;;;;;;;9.48;8.57;;;33.00;99.90;;;;;;4966779;28;20191;-74
2022/09/04 06:45:00;;;;;;;9.25;8.38;;;33.40;99.90;;;;;;4973539;28;20183;-74
2022/09/04 06:47:38;;;;;;;8.50;7.80;;;34.90;99.90;;;;;;4973339;28;20176;-74
2022/09/04 06:50:12;;;;;;;7.63;7.03;;;34.80;99.90;;;;;;4972814;28;20172;-73
2022/09/04 06:53:16;;;;;;;7.60;7.00;;;35.10;99.90;;;;;;4971567;28;20213;-73
2022/09/04 06:56:09;;;;;;;7.00;6.40;;;34.80;99.90;;;;;;4973388;28;20176;-74
2022/09/04 06:58:56;;;;;;;6.85;6.30;;;35.50;99.90;;;;;;4973321;28;20200;-75
2022/09/04 07:01:45;;;;;;;6.25;5.80;;;35.20;99.90;;;;;;4973468;28;20174;-74
2022/09/04 07:04:16;;;;;;;6.60;6.00;;;36.20;99.90;;;;;;4972996;28;20168;-75
2022/09/04 07:07:11;;;;;;;5.78;5.38;;;36.60;89.40;;;;;;4972931;28;20180;-75
2022/09/04 07:09:45;;;;;;;6.00;5.53;;;37.30;83.10;;;;;;4972605;28;20192;-75
2022/09/04 07:12:58;;;;;;;5.85;5.38;;;37.40;70.10;;;;;;4972789;28;20270;-76
2022/09/04 07:15:32;;;;;;;6.15;5.53;;;37.50;58.30;;;;;;4972284;28;20231;-76
2022/09/04 07:18:13;;;;;;;6.22;5.72;;;37.50;50.30;;;;;;4972762;28;20198;-76
2022/09/04 07:20:57;;;;;;;6.20;5.65;;;36.60;54.50;;;;;;4973085;28;20269;-75
2022/09/04 07:23:31;;;;;;;5.88;5.35;;;37.00;51.40;;;;;;4972808;28;20172;-77
2022/09/04 07:26:02;;;;;;;6.45;5.40;;;37.30;46.80;;;;;;4972070;28;20174;-76
2022/09/04 07:28:58;;;;;;;5.75;5.35;;;37.10;44.70;;;;;;4972761;28;20229;-76
2022/09/04 07:31:39;;;;;;;6.22;5.72;;;36.80;42.10;;;;;;4973040;28;20179;-77
2022/09/04 07:34:29;;;;;;;5.78;5.38;;;36.20;45.10;;;;;;4972739;28;20203;-77
2022/09/04 07:37:09;;;;;;;6.00;5.50;;;36.60;45.90;;;;;;4972752;28;20176;-76
2022/09/04 07:39:47;;;;;;;5.50;5.00;;;36.70;39.40;;;;;;4971990;28;20203;-77
2022/09/04 07:42:24;;;;;;;5.85;5.35;;;36.20;39.10;;;;;;4972555;28;20172;-78
2022/09/04 07:44:58;;;;;;;5.07;4.78;;;36.70;39.80;;;;;;4971987;28;20642;-77
2022/09/04 07:47:44;;;;;;;4.75;4.45;;;36.70;31.90;;;;;;4972320;28;20636;-77
2022/09/04 07:50:23;;;;;;;4.80;4.40;;;36.90;32.90;;;;;;4972577;28;20262;-78
2022/09/04 07:53:26;;;;;;;4.90;3.92;;;36.90;28.60;;;;;;4972326;28;20229;-78
2022/09/04 07:56:01;;;;;;;4.55;3.67;;;36.40;28.50;;;;;;4971834;28;20179;-77
2022/09/04 07:58:49;;;;;;;4.10;3.53;;;36.40;25.60;;;;;;4972060;28;20195;-77
2022/09/04 08:01:26;;;;;;;4.13;3.83;;;36.50;24.90;;;;;;4971974;28;20682;-76
2022/09/04 08:04:10;;;;;;;4.05;3.53;;;36.70;24.30;;;;;;4971992;28;20250;-77
2022/09/04 08:07:12;;;;;;;3.58;3.13;;;37.00;19.60;;;;;;4972088;28;20172;-76
2022/09/04 08:10:05;;;;;;;2.95;2.85;;;36.90;20.60;;;;;;4968892;28;20179;-77
2022/09/04 08:12:46;;;;;;;3.10;2.83;;;36.80;14.70;;;;;;4970297;28;20195;-79
2022/09/04 08:15:21;;;;;;;3.60;3.30;;;36.70;15.10;;;;;;4970893;28;20238;-77
2022/09/04 08:18:10;;;;;;;3.95;2.72;;;36.90;13.60;;;;;;4971511;28;20171;-79
2022/09/04 08:20:48;;;;;;;3.83;2.80;;;37.10;12.80;;;;;;4971893;28;20651;-77
2022/09/04 08:23:34;;;;;;;3.03;2.72;;;36.40;12.10;;;;;;4971689;28;20172;-77
2022/09/04 08:26:18;;;;;;;3.08;2.80;;;36.70;10.70;;;;;;4971096;28;20696;-78
2022/09/04 08:29:07;;;;;;;3.00;2.80;;;36.70;8.80;;;;;;4971133;28;20202;-77
2022/09/04 08:31:46;;;;;;;3.10;2.80;;;36.60;8.30;;;;;;4970335;28;20180;-77
2022/09/04 08:34:27;;;;;;;2.40;2.20;;;36.90;8.30;;;;;;4971709;28;20243;-77
2022/09/04 08:37:10;;;;;;;2.70;2.50;;;36.60;4.90;;;;;;4971674;28;20189;-77
2022/09/04 08:39:48;;;;;;;4.35;2.70;;;37.10;1.00;;;;;;4971275;28;20226;-79
2022/09/04 08:42:22;;;;;;;2.60;2.45;;;37.50;2.20;;;;;;4971514;28;20171;-77
2022/09/04 08:45:27;;;;;;;2.97;2.30;;;37.40;1.00;;;;;;4971618;28;20179;-76
2022/09/04 08:48:17;;;;;;;2.58;2.38;;;37.10;1.10;;;;;;4969998;28;20262;-76
2022/09/04 08:51:03;;;;;;;2.22;2.10;;;36.90;1.00;;;;;;4969672;28;20172;-75
2022/09/04 08:54:01;;;;;;;2.70;2.50;;;35.20;1.00;;;;;;4971345;28;20172;-77
2022/09/04 08:56:56;;;;;;;2.25;2.10;;;33.70;9.20;;;;;;4969941;28;20172;-76
2022/09/04 09:00:04;;;;;;;1.90;1.80;;;32.50;16.80;;;;;;4971098;28;20216;-75
2022/09/04 09:02:47;;;;;;;2.60;2.40;;;31.10;26.40;;;;;;4930195;28;20209;-75
2022/09/04 09:05:39;;;;;;;2.28;2.17;;;30.50;38.00;;;;;;4930771;29;20181;-75
2022/09/04 09:08:24;;;;;;;3.08;2.50;;;30.60;40.10;;;;;;4930524;28;20177;-76
2022/09/04 09:11:04;;;;;;;3.38;2.38;;;31.30;44.10;;;;;;4930892;29;20641;-75
2022/09/04 09:13:53;;;;;;;2.53;2.33;;;31.60;38.10;;;;;;4930275;28;20208;-74
2022/09/04 09:16:31;;;;;;;2.50;2.30;;;30.30;47.20;;;;;;4931081;29;20272;-76
2022/09/04 09:19:08;;;;;;;2.40;2.25;;;30.40;55.60;;;;;;4929961;28;20350;-77
2022/09/04 09:21:48;;;;;;;2.30;2.13;;;30.90;50.80;;;;;;4930189;28;20304;-76
2022/09/04 09:24:26;;;;;;;2.40;2.20;;;31.10;47.30;;;;;;4930498;29;20580;-77
2022/09/04 09:27:10;;;;;;;3.85;2.30;;;31.40;50.70;;;;;;4932486;29;20663;-76
2022/09/04 09:29:48;;;;;;;2.03;1.92;;;32.40;44.60;;;;;;4933529;28;20235;-76
2022/09/04 09:32:47;;;;;;;4.03;2.95;;;33.30;37.70;;;;;;4934158;29;20182;-77
2022/09/04 09:35:35;;;;;;;2.90;2.00;;;34.00;26.90;;;;;;4933762;28;20239;-76
2022/09/04 09:38:49;;;;;;;3.75;1.90;;;34.60;19.60;;;;;;4934388;28;20173;-78
2022/09/04 09:41:44;;;;;;;3.63;2.15;;;35.30;7.20;;;;;;4935334;29;20705;-78
2022/09/04 09:44:59;;;;;;;2.25;2.03;;;35.90;4.80;;;;;;4935928;29;20222;-77
2022/09/04 09:47:30;;;;;;;2.13;1.98;;;34.40;6.00;;;;;;4938638;28;20185;-76
2022/09/04 09:50:07;;;;;;;3.28;2.97;;;32.50;12.30;;;;;;4935326;29;20264;-76
2022/09/04 09:52:54;;;;;;;1.98;1.70;;;31.90;21.50;;;;;;4935606;29;20169;-74
2022/09/04 09:55:41;;;;;;;3.92;1.50;;;31.90;11.80;;;;;;4935665;28;20169;-76
2022/09/04 09:58:07;;;;;;;2.55;1.77;;;32.20;7.30;;;;;;4934726;28;20225;-75
2022/09/04 10:00:38;;;;;;;3.50;2.05;;;32.00;7.40;;;;;;4935368;29;20204;-76
2022/09/04 10:03:24;;;;;;;3.25;1.83;;;32.50;7.40;;;;;;4935263;28;20173;-76
2022/09/04 10:06:26;;;;;;;1.80;1.70;;;32.60;1.00;;;;;;4934702;29;20177;-76
2022/09/04 10:09:21;;;;;;;2.13;1.90;;;32.60;1.90;;;;;;4935075;28;20227;-76
2022/09/04 10:12:20;;;;;;;2.80;1.80;;;32.60;2.70;;;;;;4935233;29;20244;-76
2022/09/04 10:14:57;;;;;;;6.85;6.15;;;32.60;1.10;;;;;;4956527;28;20361;-75
2022/09/04 10:17:53;;;;;;;3.75;1.70;;;31.90;1.00;;;;;;4973335;28;20196;-76
2022/09/04 10:20:21;;;;;;;4.70;1.67;;;32.40;1.00;;;;;;4973545;28;20211;-78
2022/09/04 10:22:54;;;;;;;4.35;2.50;;;33.40;1.00;;;;;;4973574;28;20694;-77
2022/09/04 10:25:48;;;;;;;4.10;1.90;;;34.60;1.00;;;;;;4972492;28;20184;-77
2022/09/04 10:28:29;;;;;;;5.00;1.92;;;33.60;1.00;;;;;;4973045;28;20190;-77
2022/09/04 10:31:43;;;;;;;2.95;1.80;;;33.00;1.00;;;;;;4972447;28;20176;-77
2022/09/04 10:34:39;;;;;;;2.70;1.80;;;32.90;1.00;;;;;;4973330;28;20250;-76
2022/09/04 10:37:33;;;;;;;4.53;2.72;;;32.60;1.00;;;;;;4972958;28;20176;-76
2022/09/04 10:40:39;;;;;;;5.15;2.42;;;33.70;1.00;;;;;;4973497;28;20219;-77
2022/09/04 10:43:32;;;;;;;2.47;1.50;;;34.10;1.00;;;;;;4972906;28;20225;-75
2022/09/04 10:46:27;;;;;;;2.53;1.63;;;34.40;1.00;;;;;;4973250;28;20180;-76
2022/09/04 10:49:14;;;;;;;2.60;1.60;;;34.40;1.00;;;;;;4972026;28;20187;-75
2022/09/04 10:52:16;;;;;;;3.55;1.88;;;33.30;1.00;;;;;;4972792;28;20176;-75
2022/09/04 10:54:47;;;;;;;2.22;1.80;;;34.00;1.00;;;;;;4973042;28;20171;-76
2022/09/04 10:57:36;;;;;;;1.77;1.67;;;34.50;1.00;;;;;;4971783;28;20283;-77
2022/09/04 11:00:17;;;;;;;1.80;1.55;;;33.80;1.00;;;;;;4973363;28;20277;-76
2022/09/04 11:03:04;;;;;;;2.97;1.85;;;33.30;1.00;;;;;;4972625;28;20172;-76
2022/09/04 11:06:01;;;;;;;3.28;1.90;;;33.40;1.00;;;;;;4973082;28;20179;-76
2022/09/04 11:08:41;;;;;;;1.92;1.80;;;32.80;1.00;;;;;;4972943;28;20194;-76
2022/09/04 11:11:25;;;;;;;2.15;1.40;;;33.20;1.00;;;;;;4972909;28;20179;-75
2022/09/04 11:14:17;;;;;;;2.08;1.58;;;33.90;1.00;;;;;;4972746;28;20227;-75
2022/09/04 11:16:58;;;;;;;2.03;1.60;;;34.20;1.00;;;;;;4972779;28;20690;-76
2022/09/04 11:19:59;;;;;;;1.83;1.45;;;34.00;1.00;;;;;;4972874;28;20215;-76
2022/09/04 11:22:43;;;;;;;3.83;1.60;;;34.00;1.00;;;;;;4972297;28;20172;-76
2022/09/04 11:25:23;;;;;;;3.38;1.60;;;33.60;1.00;;;;;;4972667;28;20172;-75
2022/09/04 11:28:05;;;;;;;3.40;1.70;;;33.60;1.00;;;;;;4971365;28;20508;-75
2022/09/04 11:30:44;;;;;;;1.90;1.58;;;33.60;1.00;;;;;;4972141;28;20164;-75
2022/09/04 11:33:37;;;;;;;2.45;1.48;;;33.40;1.00;;;;;;4972279;28;20548;-74
2022/09/04 11:36:40;;;;;;;4.45;2.03;;;32.40;1.00;;;;;;4972663;28;20172;-74
2022/09/04 11:39:06;;;;;;;2.17;1.60;;;31.80;1.00;;;;;;4970514;28;20260;-73
2022/09/04 11:42:02;;;;;;;2.75;1.70;;;31.90;1.00;;;;;;4972659;28;20180;-74
2022/09/04 11:44:52;;;;;;;3.47;1.80;;;32.50;1.00;;;;;;4972350;28;20628;-74
2022/09/04 11:47:39;;;;;;;4.82;1.80;;;32.50;1.00;;;;;;4970204;28;20648;-74
2022/09/04 11:50:19;;;;;;;4.13;1.90;;;33.40;1.00;;;;;;4970926;28;20195;-74
2022/09/04 11:53:07;;;;;;;5.40;1.83;;;33.00;1.00;;;;;;4970885;28;20168;-74
2022/09/04 11:56:04;;;;;;;4.60;1.75;;;32.00;1.00;;;;;;4971238;28;20172;-74
2022/09/04 11:58:51;;;;;;;2.85;1.65;;;31.70;1.00;;;;;;4971315;28;20172;-74
2022/09/04 12:01:35;;;;;;;1.63;1.52;;;30.90;1.00;;;;;;4971833;28;20205;-75
2022/09/04 12:04:28;;;;;;;8.13;1.80;;;30.90;1.00;;;;;;4972113;28;20196;-75
2022/09/04 12:07:36;;;;;;;1.65;1.55;;;31.00;1.00;;;;;;4972132;28;20172;-74
2022/09/04 12:10:37;;;;;;;3.80;1.58;;;30.70;1.00;;;;;;4971719;28;20164;-75
2022/09/04 12:13:13;;;;;;;2.22;1.63;;;31.00;1.00;;;;;;4971727;28;20261;-75
2022/09/04 12:15:54;;;;;;;1.77;1.63;;;30.60;1.00;;;;;;4971580;28;20307;-74
2022/09/04 12:18:34;;;;;;;3.80;1.95;;;30.00;1.00;;;;;;4972070;28;20173;-74
2022/09/04 12:21:24;;;;;;;2.05;1.63;;;29.20;1.00;;;;;;4969930;28;20241;-74
2022/09/04 12:23:53;;;;;;;2.40;1.80;;;28.80;1.00;;;;;;4971741;28;20176;-75
2022/09/04 12:26:48;;;;;;;2.55;1.60;;;28.50;1.00;;;;;;4971878;28;20179;-74
2022/09/04 12:29:29;;;;;;;2.28;1.60;;;28.40;1.00;;;;;;4971159;28;20172;-75
2022/09/04 12:32:19;;;;;;;2.25;2.08;;;28.40;1.00;;;;;;4971903;28;20176;-75
2022/09/04 12:34:59;;;;;;;3.17;1.80;;;28.20;1.00;;;;;;4971224;28;20178;-76
2022/09/04 12:38:00;;;;;;;3.63;2.05;;;28.60;1.00;;;;;;4970616;28;20172;-76
2022/09/04 12:41:04;;;;;;;1.60;1.50;;;28.50;1.00;;;;;;4970935;28;20296;-75
2022/09/04 12:44:10;;;;;;;4.22;1.58;;;28.60;1.00;;;;;;4971823;28;20168;-75
2022/09/04 12:47:12;;;;;;;2.38;1.80;;;28.20;1.30;;;;;;4969943;28;20179;-75
2022/09/04 12:50:13;;;;;;;2.00;1.80;;;28.10;5.70;;;;;;4971254;28;20577;-75
2022/09/04 12:53:01;;;;;;;2.47;2.00;;;28.50;3.90;;;;;;4971600;28;20528;-75
2022/09/04 12:56:10;;;;;;;3.15;1.77;;;28.50;4.30;;;;;;4971681;28;20168;-74
2022/09/04 12:58:51;;;;;;;3.58;1.85;;;28.50;3.20;;;;;;4972599;28;20242;-75
2022/09/04 13:01:36;;;;;;;2.30;1.77;;;28.80;3.00;;;;;;4970870;28;20576;-75
2022/09/04 13:04:21;;;;;;;2.00;1.77;;;29.00;4.20;;;;;;4971243;28;20168;-73
2022/09/04 13:07:02;;;;;;;2.10;1.80;;;29.10;1.30;;;;;;4971103;28;20280;-73
2022/09/04 13:09:50;;;;;;;4.13;1.60;;;28.80;1.00;;;;;;4969408;28;20534;-75
2022/09/04 13:12:31;;;;;;;4.05;1.70;;;29.10;1.00;;;;;;4970390;28;20738;-75
2022/09/04 13:14:59;;;;;;;1.90;1.80;;;29.10;1.50;;;;;;4970710;28;20702;-74
2022/09/04 13:17:47;;;;;;;4.00;1.80;;;29.20;2.20;;;;;;4969760;28;20214;-75
2022/09/04 13:20:33;;;;;;;2.60;2.25;;;28.80;4.10;;;;;;4969713;28;20211;-73
2022/09/04 13:23:24;;;;;;;3.58;1.90;;;28.80;4.90;;;;;;4970481;28;20176;-73
2022/09/04 13:25:51;;;;;;;3.97;1.98;;;29.00;4.00;;;;;;4971065;28;20588;-74
2022/09/04 13:28:38;;;;;;;2.17;1.92;;;29.10;1.70;;;;;;4970743;28;20666;-75
2022/09/04 13:31:19;;;;;;;3.22;1.60;;;29.50;1.80;;;;;;4970231;28;20187;-75
2022/09/04 13:33:52;;;;;;;2.53;1.80;;;29.20;1.00;;;;;;4969633;28;20639;-75
2022/09/04 13:36:37;;;;;;;2.17;1.55;;;29.20;5.20;;;;;;4969769;28;20184;-75
2022/09/04 13:39:24;;;;;;;1.90;1.80;;;29.30;18.20;;;;;;4970611;28;20207;-74
2022/09/04 13:41:52;;;;;;;1.90;1.80;;;29.50;3.20;;;;;;4970523;28;20172;-75
2022/09/04 13:44:39;;;;;;;4.43;2.13;;;29.70;1.40;;;;;;4970224;28;20176;-74
2022/09/04 13:47:21;;;;;;;4.45;1.67;;;29.70;2.80;;;;;;4969560;28;20635;-74
2022/09/04 13:50:08;;;;;;;1.90;1.70;;;29.50;4.40;;;;;;4970614;28;20245;-73
2022/09/04 13:52:50;;;;;;;2.28;1.77;;;29.40;2.50;;;;;;4970108;28;20183;-73
2022/09/04 13:55:33;;;;;;;2.35;2.00;;;29.40;4.20;;;;;;4970610;28;20175;-76
2022/09/04 13:58:15;;;;;;;2.38;2.15;;;29.40;3.20;;;;;;4969766;28;20172;-74
2022/09/04 14:00:48;;;;;;;2.17;1.77;;;29.70;2.70;;;;;;4970523;28;20203;-73
2022/09/04 14:03:43;;;;;;;3.67;2.17;;;29.70;1.20;;;;;;4970385;28;20180;-73
2022/09/04 14:06:13;;;;;;;3.38;1.90;;;29.60;1.00;;;;;;4970024;28;20177;-73
2022/09/04 14:08:42;;;;;;;2.60;1.67;;;29.40;1.00;;;;;;4970126;28;20256;-73
2022/09/04 14:11:30;;;;;;;3.50;1.48;;;29.20;2.90;;;;;;4969714;28;20176;-75
2022/09/04 14:14:20;;;;;;;2.90;2.03;;;28.90;3.30;;;;;;4973222;28;20239;-74
2022/09/04 14:16:49;;;;;;;2.17;1.83;;;29.20;7.80;;;;;;4973716;28;20670;-74
2022/09/04 14:19:32;;;;;;;2.80;2.03;;;29.30;5.60;;;;;;4973385;28;20215;-74
2022/09/04 14:22:17;;;;;;;3.45;1.80;;;29.20;4.00;;;;;;4971545;28;20172;-74
2022/09/04 14:24:48;;;;;;;2.38;1.85;;;29.00;4.40;;;;;;4973762;28;20248;-74
2022/09/04 14:27:34;;;;;;;2.17;1.80;;;28.90;4.40;;;;;;4971948;28;20256;-73
2022/09/04 14:30:03;;;;;;;2.83;2.15;;;28.80;3.90;;;;;;4973699;28;20180;-73
2022/09/04 14:33:27;;;;;;;2.17;1.98;;;28.70;4.60;;;;;;4973640;28;20209;-75